x

Passage Island, Mi (pilm4) Weather Station

8:00pm - Sun 28th May 2017 All times are CDT. -5 hours from GMT.

  • Wind
    3mph, 5mph gusts
  • Air Temp 41°f
  • Sea Pressure 1004.8mb
  • Passage Island, Mi
  • Passage Island, Mi

More Historic Weather Station data

Upgrade to MSW Pro to gain access to the past 30 days of data for over 8000 Wavebouys and Weather Stations around the globe.

Join Pro

Comparision Forecast

View Surf forecast
   
Sun 05/28 8:00pm 3 5 mph 1004.8mb 41f
7:00pm 5 6 mph 1004.8mb 42f
6:00pm 2 2 mph 1004.5mb 49f
5:00pm 8 8 mph 1005.2mb 48f
4:00pm 5 6 mph 1005.1mb 43f
3:00pm 13 13 mph 1005.2mb 42f
2:00pm 13 13 mph 1005.5mb 41f
1:00pm 11 11 mph 1006.1mb 46f
12:00pm 2 2 mph 1006.1mb 54f
11:00am 6 6 mph 1006.6mb 51f
10:00am 7 7 mph 1006.7mb 44f
9:00am 7 8 mph 1006.8mb 39f
8:00am 11 13 mph 1006.7mb 42f
7:00am 21 23 mph 1006.6mb -
6:00am 3 5 mph 1007.6mb 42f
5:00am 7 8 mph 1007.4mb 41f
4:00am 6 7 mph 1007.7mb 42f
3:00am 6 6 mph 1008.1mb 45f
2:00am 5 6 mph 1008.8mb 42f
1:00am 6 6 mph 1008.9mb 43f
12:00am 6 7 mph 1009.4mb 40f
Sat 05/27 11:00pm 7 8 mph 1009.7mb 40f
10:00pm 13 14 mph 1010mb 41f
9:00pm 7 8 mph 1009.9mb 40f
8:00pm 10 11 mph 1009.9mb 40f
7:00pm 9 10 mph 1009.6mb 41f
6:00pm 6 6 mph 1010.4mb 41f
5:00pm 9 10 mph 1011.1mb 42f
4:00pm 8 9 mph 1011mb 49f
3:00pm 9 10 mph 1011.2mb 44f
2:00pm 7 8 mph 1011mb 40f
1:00pm 5 6 mph 1011.1mb 41f
12:00pm 3 5 mph 1011.3mb 42f
11:00am 2 3 mph 1010.8mb 41f
10:00am 2 5 mph 1010.7mb 42f
9:00am  -  1 mph 1010.5mb 45f
8:00am 5 5 mph 1010.6mb 42f
7:00am 3 3 mph 1010.7mb 43f
6:00am 8 9 mph 1010.4mb 43f
5:00am 5 6 mph 1010.3mb 42f
4:00am 5 7 mph 1010.2mb 42f
3:00am 10 10 mph 1010.3mb 41f
2:00am 8 9 mph 1010.4mb 41f
1:00am 9 14 mph 1010.7mb 42f
12:00am 18 21 mph 1010.3mb 43f
Fri 05/26 11:00pm 18 20 mph 1010.4mb 44f
10:00pm 15 16 mph 1010.6mb 44f
9:00pm 14 14 mph 1010.9mb 44f
8:00pm 14 15 mph 1010.3mb 46f
7:00pm 10 11 mph 1010.1mb 44f
6:00pm 9 10 mph 1010.1mb 44f
5:00pm 3 3 mph 1010.5mb 44f
4:00pm 10 11 mph 1010.1mb 42f
3:00pm 9 10 mph 1010.6mb 42f
2:00pm 6 7 mph 1010.9mb 41f
1:00pm 10 11 mph 1011.1mb 41f
12:00pm 10 11 mph 1011.1mb 41f
11:00am 9 9 mph 1011.2mb 42f
10:00am 3 6 mph 1011.5mb 41f
9:00am 14 15 mph 1010.9mb 42f
8:00am 11 13 mph 1011.3mb 42f
7:00am 9 11 mph 1011.2mb 43f
6:00am 9 10 mph 1010.9mb 42f
5:00am 7 7 mph 1010.9mb 43f
4:00am 8 9 mph 1010.5mb 45f
3:00am 6 6 mph 1010.4mb 45f
2:00am 3 5 mph 1010.2mb 45f
1:00am 8 8 mph 1009.6mb 49f
12:00am 8 9 mph 1009.8mb 48f
Thu 05/25 11:00pm 7 7 mph 1009.5mb 48f
10:00pm 3 5 mph 1009.7mb 47f
9:00pm 6 7 mph 1009.2mb 47f
8:00pm 6 7 mph 1008.3mb 49f
7:00pm 2 2 mph 1008mb 53f
6:00pm 1 2 mph 1008.4mb 54f
5:00pm 3 3 mph 1008.3mb 55f
4:00pm  -  1 mph 1008.6mb 55f
3:00pm 2 5 mph 1009.1mb 53f
2:00pm 11 11 mph 1009.1mb 52f
1:00pm 7 8 mph 1009.3mb 51f
12:00pm 6 8 mph 1009.8mb 50f
11:00am 14 15 mph 1009.8mb 48f
10:00am 16 17 mph 1010mb 48f
9:00am 14 16 mph 1010.2mb 50f
8:00am 13 16 mph 1010.2mb 49f
7:00am 16 17 mph 1010mb 47f
6:00am 14 16 mph 1010mb 47f
5:00am 7 8 mph 1010.2mb 43f
4:00am 7 9 mph 1009.9mb 47f
3:00am 6 7 mph 1009.9mb 44f